EGPE

Inverness Airport

Inverness, United Kingdom
TAF EGPE 170151Z 1703/1712 33012KT 9999 BKN020 PROB40 TEMPO 1703/1709 35015G25KT 4000 SHSN BKN004
Issued Valid From Valid To
Jan-17 @ 01:51 UTC
(3 hours ago)
Jan-17 @ 03:00 UTC
(2 hours ago)
Jan-17 @ 12:00 UTC
(in 7 hours)
Jan-17 @ 03:00 to Jan-17 @ 12:00
TAF EGPE 170151Z 1703/1712 33012KT 9999 BKN020
Wind Visibility Clouds
330° at 12 knots 10,000+ meters
  • Broken at 2,000' AGL
Temporary  (Probability 40%) Jan-17 @ 03:00 to Jan-17 @ 09:00
PROB40 TEMPO 1703/1709 35015G25KT 4000 SHSN BKN004
Wind Visibility Clouds Conditions
350° at 15 knots
 Gusting to 25 knots
4,007 meters
  • Broken at 400' AGL
  • Snow
TAF EGPE 170151Z 1703/1712 33012KT 9999 BKN020 PROB40 TEMPO 1703/1709 35015G25KT 4000 SHSN BKN004
Issued Jan-17 @ 01:51 UTC
(3 hours ago)
Valid From Jan-17 @ 03:00 UTC
(2 hours ago)
Valid To Jan-17 @ 12:00 UTC
(in 7 hours)
Jan-17 @ 03:00 - Jan-17 @ 12:00
Wind Visibility
330° at 12 knots 10,000+ meters
Clouds
  • Broken at 2,000' AGL
Probability 40% Temporary Jan-17 @ 03:00 - Jan-17 @ 09:00
Wind Visibility
350° at 15 knots
 Gusting to 25 knots
4,007 meters
Clouds
  • Broken at 400' AGL
Conditions
  • Snow